This is the latest recevied weather packets stored in our database for station/object DL1AIE-13. If no packets are shown the sender has not sent any weather packets the latest 10 day(s).
| Time | Temp. | Humidity | Pressure | Rain* | Wind** | Luminosity | Snow |
|---|---|---|---|---|---|---|---|
| 1777428737 | 7.78° C | 51% | 1023.1 hPa | 0 mm | - | - | - |
| 1777428154 | 6.67° C | 59% | 1023 hPa | 0 mm | - | - | - |
| 1777427550 | 6.67° C | 56% | 1022.9 hPa | 0 mm | - | - | - |
| 1777426946 | 6.67° C | 60% | 1022.8 hPa | 0 mm | - | - | - |
| 1777426342 | 6.67° C | 59% | 1022.7 hPa | 0 mm | - | - | - |
| 1777425739 | 7.22° C | 57% | 1022.8 hPa | 0 mm | - | - | - |
| 1777425155 | 7.78° C | 55% | 1022.8 hPa | 0 mm | - | - | - |
| 1777424552 | 7.78° C | 54% | 1022.8 hPa | 0 mm | - | - | - |
| 1777423948 | 8.33° C | 52% | 1022.7 hPa | 0 mm | - | - | - |
| 1777423344 | 8.33° C | 51% | 1022.8 hPa | 0 mm | - | - | - |
| 1777422741 | 8.89° C | 48% | 1022.8 hPa | 0 mm | - | - | - |
| 1777422137 | 9.44° C | 47% | 1023 hPa | 0 mm | - | - | - |
| 1777421553 | 8.89° C | 49% | 1023 hPa | 0 mm | - | - | - |
| 1777420950 | 9.44° C | 48% | 1023.1 hPa | 0 mm | - | - | - |
| 1777420346 | 10° C | 48% | 1023 hPa | 0 mm | - | - | - |
| 1777419742 | 10.56° C | 44% | 1022.9 hPa | 0 mm | - | - | - |
| 1777419138 | 10.56° C | 45% | 1023 hPa | 0 mm | - | - | - |
| 1777418555 | 11.11° C | 43% | 1022.8 hPa | 0 mm | - | - | - |
| 1777417951 | 11.11° C | 44% | 1022.9 hPa | 0 mm | - | - | - |
| 1777417347 | 11.67° C | 44% | 1022.7 hPa | 0 mm | - | - | - |
| 1777416743 | 11.67° C | 46% | 1022.8 hPa | 0 mm | - | - | - |
| 1777416139 | 11.67° C | 45% | 1022.6 hPa | 0 mm | - | - | - |
| 1777415558 | 12.22° C | 44% | 1022.5 hPa | 0 mm | - | - | - |
| 1777414952 | 11.67° C | 45% | 1022.3 hPa | 0 mm | - | - | - |
| 1777414348 | 12.22° C | 44% | 1022.3 hPa | 0 mm | - | - | - |
* Rain latest hour (hover to see other rain measurements)
** Current wind speed in m/s (hover to see current wind gust speed)